Time;durP1;ratioP1;P1;durP2;ratioP2;P2;SDS_P1;SDS_P2;PMS_P1;PMS_P2;Temp;Humidity;BMP_temperature;BMP_pressure;BME280_temperature;BME280_humidity;BME280_pressure;Samples;Min_cycle;Max_cycle;Signal;HPM_P1;HPM_P2
2022/01/28 00:00:14;;;;;;;19.15;3.90;;;;;;;5.58;97.04;103094.72;10510869;28;20025;-73
2022/01/28 00:05:19;;;;;;;24.00;4.13;;;;;;;5.60;96.79;103103.50;10510975;28;20422;-72
2022/01/28 00:10:21;;;;;;;7.90;3.30;;;;;;;5.58;96.36;103102.78;10509313;28;20040;-73
2022/01/28 00:15:39;;;;;;;8.25;3.75;;;;;;;5.58;96.51;103116.22;10510748;28;20699;-71
2022/01/28 00:36:28;;;;;;;14.65;3.13;;;;;;;5.64;97.10;103109.53;10511183;28;20042;-73
2022/01/28 00:41:59;;;;;;;18.10;3.70;;;;;;;5.70;98.56;103111.78;10510243;28;20387;-73
2022/01/28 00:47:00;;;;;;;19.10;3.95;;;;;;;5.76;99.02;103116.72;10508296;28;20098;-73
2022/01/28 00:52:00;;;;;;;5.40;2.30;;;;;;;5.78;98.77;103133.59;10509672;28;20488;-72
2022/01/28 00:57:00;;;;;;;6.18;3.67;;;;;;;5.83;99.08;103135.94;10503642;28;20086;-74
2022/01/28 01:02:01;;;;;;;17.30;4.68;;;;;;;5.82;99.81;103136.91;10502222;28;20115;-73
2022/01/28 01:07:01;;;;;;;11.48;4.20;;;;;;;5.85;99.33;103134.00;10503462;28;20047;-74
2022/01/28 01:12:02;;;;;;;14.65;4.35;;;;;;;5.81;98.58;103144.13;10502344;28;20472;-78
2022/01/28 01:17:20;;;;;;;13.63;2.63;;;;;;;5.75;98.79;103143.72;10503352;28;20032;-77
2022/01/28 01:22:20;;;;;;;14.60;3.08;;;;;;;5.66;98.81;103150.59;10503546;28;20036;-78
2022/01/28 01:27:21;;;;;;;6.78;3.25;;;;;;;5.56;99.12;103157.63;10505383;28;20076;-77
2022/01/28 01:32:22;;;;;;;14.90;5.35;;;;;;;5.74;100.00;103172.44;10502588;28;20040;-77
2022/01/28 01:37:22;;;;;;;15.10;3.97;;;;;;;6.01;100.00;103179.50;10502543;28;20051;-77
2022/01/28 01:42:33;;;;;;;15.30;4.40;;;;;;;6.22;100.00;103194.06;10501001;28;20357;-77
2022/01/28 01:52:53;;;;;;;12.05;4.65;;;;;;;6.56;100.00;103199.63;10502145;28;20056;-77
2022/01/28 01:57:53;;;;;;;9.43;3.47;;;;;;;6.69;100.00;103207.66;10483879;28;20452;-77
2022/01/28 02:02:53;;;;;;;12.27;3.40;;;;;;;6.58;100.00;103208.47;10501402;28;20064;-77
2022/01/28 02:07:54;;;;;;;14.80;4.18;;;;;;;6.53;100.00;103214.19;10483062;28;20033;-77
2022/01/28 02:12:54;;;;;;;13.18;4.72;;;;;;;6.33;100.00;103211.25;10501029;28;20033;-77
2022/01/28 02:17:56;;;;;;;10.65;3.42;;;;;;;6.17;100.00;103214.22;10500787;28;20063;-77
2022/01/28 02:22:57;;;;;;;21.40;5.38;;;;;;;6.01;99.62;103203.72;10499098;28;20036;-77
2022/01/28 02:28:03;;;;;;;22.00;4.72;;;;;;;5.84;99.23;103196.84;10500362;28;20032;-78
2022/01/28 02:33:13;;;;;;;9.27;4.05;;;;;;;5.80;99.65;103223.03;10498782;28;20062;-77
2022/01/28 02:38:15;;;;;;;11.45;3.58;;;;;;;5.63;99.25;103220.72;10499881;28;20064;-77
2022/01/28 02:48:26;;;;;;;28.98;5.25;;;;;;;5.55;99.20;103226.63;10500061;28;20029;-77
2022/01/28 02:53:29;;;;;;;25.73;5.30;;;;;;;5.53;99.29;103230.41;10482503;28;20057;-78
2022/01/28 02:58:30;;;;;;;15.02;5.22;;;;;;;5.48;99.22;103243.28;10499215;28;20043;-78
2022/01/28 03:03:30;;;;;;;13.85;4.93;;;;;;;5.51;99.28;103248.44;10497624;28;20032;-77
2022/01/28 03:08:31;;;;;;;20.60;5.13;;;;;;;5.43;99.62;103246.31;10498795;28;20045;-77
2022/01/28 03:18:42;;;;;;;16.38;4.45;;;;;;;5.40;99.37;103251.03;10498021;28;20078;-77
2022/01/28 03:23:42;;;;;;;10.85;3.38;;;;;;;5.34;98.66;103244.25;10497291;28;20043;-77
2022/01/28 03:28:43;;;;;;;10.20;3.80;;;;;;;5.39;98.11;103243.91;10497599;28;20533;-77
2022/01/28 03:33:43;;;;;;;12.75;4.47;;;;;;;5.35;97.04;103254.00;10463648;28;20097;-77
2022/01/28 03:38:47;;;;;;;41.47;5.03;;;;;;;5.26;96.77;103257.31;10497562;28;20029;-77
2022/01/28 03:43:47;;;;;;;11.65;3.15;;;;;;;5.23;97.14;103269.16;10498770;28;20454;-77
2022/01/28 03:48:48;;;;;;;4.40;2.38;;;;;;;5.16;96.96;103265.16;10498091;28;20086;-77
2022/01/28 03:53:48;;;;;;;7.28;3.15;;;;;;;5.16;97.07;103275.91;10497126;28;20053;-77
2022/01/28 03:58:49;;;;;;;5.60;3.13;;;;;;;5.13;97.10;103273.41;10496884;28;20451;-77
2022/01/28 04:04:17;;;;;;;3.60;2.42;;;;;;;5.20;96.56;103273.84;10496137;28;20424;-77
2022/01/28 04:19:29;;;;;;;13.77;3.58;;;;;;;5.20;96.78;103293.56;10497202;28;20131;-77
2022/01/28 04:24:29;;;;;;;15.05;3.22;;;;;;;5.08;96.70;103294.38;10495155;28;20043;-77
2022/01/28 04:29:29;;;;;;;17.20;3.72;;;;;;;5.09;96.93;103293.41;10497043;28;20032;-77
2022/01/28 04:34:30;;;;;;;16.65;3.67;;;;;;;5.13;96.49;103303.81;10504621;28;20060;-77
2022/01/28 04:45:01;;;;;;;13.52;3.47;;;;;;;5.04;96.51;103315.19;10504284;28;20537;-77
2022/01/28 04:50:02;;;;;;;6.90;2.75;;;;;;;4.90;95.89;103310.72;10502754;28;20534;-77
2022/01/28 05:00:47;;;;;;;7.10;2.53;;;;;;;4.71;95.83;103318.25;10503718;28;20189;-77
2022/01/28 05:26:54;;;;;;;9.95;3.97;;;;;;;4.78;98.29;103322.25;10502307;28;20494;-76
2022/01/28 05:31:55;;;;;;;11.98;4.60;;;;;;;4.63;97.86;103326.81;10503986;28;20029;-76
2022/01/28 05:36:55;;;;;;;22.20;5.65;;;;;;;4.68;98.69;103328.34;10503168;28;20090;-76
2022/01/28 05:41:55;;;;;;;10.60;3.67;;;;;;;4.76;100.00;103339.47;10503066;28;20029;-76
2022/01/28 05:46:57;;;;;;;20.23;4.90;;;;;;;4.92;100.00;103333.94;10501310;28;20116;-78
2022/01/28 05:51:57;;;;;;;21.55;5.07;;;;;;;4.82;99.03;103331.84;10501675;28;20567;-78
2022/01/28 05:56:59;;;;;;;14.63;5.13;;;;;;;4.78;99.06;103350.94;10510757;28;20058;-77
2022/01/28 06:01:59;;;;;;;17.33;4.15;;;;;;;4.70;98.36;103359.50;10501987;28;20051;-77
2022/01/28 06:06:59;;;;;;;9.88;4.40;;;;;;;4.61;98.45;103360.09;10501133;28;20040;-77
2022/01/28 06:12:00;;;;;;;24.48;5.00;;;;;;;4.51;98.25;103380.41;10500712;28;20468;-77
2022/01/28 06:17:00;;;;;;;10.43;4.45;;;;;;;4.51;97.97;103377.72;10500525;28;20040;-77
2022/01/28 06:22:01;;;;;;;10.70;3.88;;;;;;;4.41;97.62;103372.94;10426371;28;20052;-78
2022/01/28 06:27:01;;;;;;;5.65;3.28;;;;;;;4.43;98.01;103389.81;10498915;28;20172;-78
2022/01/28 06:32:02;;;;;;;13.05;3.40;;;;;;;4.36;97.38;103387.59;10500235;28;20070;-78
2022/01/28 06:37:02;;;;;;;5.38;2.58;;;;;;;4.35;98.05;103408.19;10499988;28;20536;-78
2022/01/28 06:42:03;;;;;;;17.05;3.25;;;;;;;4.28;97.51;103411.38;10500272;28;20028;-78
2022/01/28 06:47:04;;;;;;;11.55;2.95;;;;;;;4.32;97.38;103426.31;10499568;28;20527;-78
2022/01/28 06:52:05;;;;;;;10.98;3.42;;;;;;;4.21;97.38;103443.03;10496903;28;20140;-77
2022/01/28 06:57:06;;;;;;;31.58;4.68;;;;;;;4.07;97.00;103437.66;10497935;28;20048;-78
2022/01/28 07:02:06;;;;;;;15.30;4.05;;;;;;;3.99;97.85;103458.69;10464552;28;20395;-77
2022/01/28 07:07:07;;;;;;;22.33;4.50;;;;;;;3.96;97.67;103454.41;10498660;28;20048;-77
2022/01/28 07:12:07;;;;;;;14.90;3.67;;;;;;;3.81;97.32;103460.66;10497687;28;20492;-77
2022/01/28 07:17:08;;;;;;;21.50;3.63;;;;;;;3.79;98.30;103467.91;10496836;28;20034;-77
2022/01/28 07:22:08;;;;;;;23.75;4.85;;;;;;;3.82;99.64;103468.59;10497410;28;20036;-77
2022/01/28 07:27:09;;;;;;;18.08;4.13;;;;;;;3.83;99.68;103467.66;10498172;28;20045;-77
2022/01/28 07:32:09;;;;;;;15.30;2.88;;;;;;;3.81;99.11;103472.25;10496760;28;20387;-77
2022/01/28 07:37:09;;;;;;;13.05;4.53;;;;;;;3.75;98.56;103477.97;10498804;28;20384;-77
2022/01/28 07:42:10;;;;;;;19.90;5.50;;;;;;;3.60;96.95;103485.06;10496253;28;20031;-78
2022/01/28 07:47:10;;;;;;;17.20;4.10;;;;;;;3.77;98.32;103488.63;10479832;28;20049;-77
2022/01/28 07:52:10;;;;;;;11.68;3.30;;;;;;;3.96;99.26;103487.44;10495684;28;20060;-77
2022/01/28 07:57:11;;;;;;;14.80;4.07;;;;;;;3.95;97.99;103492.88;10497473;28;20036;-77
2022/01/28 08:02:11;;;;;;;24.15;5.18;;;;;;;4.15;98.33;103499.75;10497398;28;20182;-77
2022/01/28 08:07:12;;;;;;;20.45;5.03;;;;;;;4.72;99.74;103507.88;10504283;28;20044;-77
2022/01/28 08:12:12;;;;;;;23.77;5.00;;;;;;;5.40;100.00;103503.63;10508011;28;20040;-77
2022/01/28 08:17:13;;;;;;;14.63;4.07;;;;;;;6.18;100.00;103511.88;10508637;28;20063;-76
2022/01/28 08:22:13;;;;;;;14.52;4.90;;;;;;;6.85;100.00;103507.16;10506218;28;20131;-77
2022/01/28 08:27:13;;;;;;;32.47;6.25;;;;;;;7.55;100.00;103524.59;10504312;28;20040;-77
2022/01/28 08:32:14;;;;;;;16.10;5.32;;;;;;;8.18;99.74;103512.63;10503355;28;20483;-77
2022/01/28 08:37:14;;;;;;;12.13;4.57;;;;;;;8.66;99.72;103531.44;10502515;28;20029;-77
2022/01/28 08:42:16;;;;;;;8.40;2.90;;;;;;;9.07;99.86;103532.69;10504725;28;20037;-77
2022/01/28 08:47:16;;;;;;;8.13;3.50;;;;;;;9.61;99.16;103536.44;10502616;28;20091;-77
2022/01/28 08:52:17;;;;;;;18.58;4.05;;;;;;;9.49;98.67;103522.09;10504325;28;20049;-77
2022/01/28 08:57:17;;;;;;;24.05;4.15;;;;;;;9.05;97.95;103527.41;10469091;28;20497;-77
2022/01/28 09:02:18;;;;;;;24.98;4.80;;;;;;;9.01;98.60;103525.94;10504629;28;20039;-77
2022/01/28 09:07:19;;;;;;;14.65;3.90;;;;;;;9.89;98.22;103535.88;10502674;28;20033;-77
2022/01/28 09:12:38;;;;;;;27.40;4.93;;;;;;;10.65;97.16;103543.88;10503090;28;20028;-77
2022/01/28 09:17:38;;;;;;;19.67;3.92;;;;;;;11.32;96.40;103546.06;10503144;28;20067;-77
2022/01/28 09:22:39;;;;;;;12.05;4.15;;;;;;;11.74;96.12;103547.72;10501239;28;20036;-77
2022/01/28 09:27:39;;;;;;;12.10;3.30;;;;;;;11.82;96.36;103559.59;10502887;28;20032;-77
2022/01/28 09:32:40;;;;;;;22.83;4.70;;;;;;;12.38;95.43;103558.09;10502850;28;20057;-77
2022/01/28 09:37:40;;;;;;;22.23;4.30;;;;;;;11.63;97.40;103557.72;10483495;28;20115;-77
2022/01/28 09:42:43;;;;;;;21.95;5.45;;;;;;;11.86;97.07;103557.50;10499922;28;20032;-78
2022/01/28 09:47:46;;;;;;;7.15;3.47;;;;;;;12.24;96.39;103544.94;10500362;28;20033;-77
2022/01/28 09:52:48;;;;;;;8.48;3.55;;;;;;;12.61;95.64;103539.59;10484116;28;20415;-77
2022/01/28 09:57:51;;;;;;;5.78;2.20;;;;;;;12.96;97.00;103544.38;10501479;28;20048;-77
2022/01/28 10:02:56;;;;;;;13.38;2.65;;;;;;;12.10;97.54;103538.94;10501861;28;20028;-77
2022/01/28 10:08:13;;;;;;;16.30;4.32;;;;;;;12.34;97.61;103543.06;10500647;28;20137;-77
2022/01/28 10:13:42;;;;;;;14.57;4.72;;;;;;;13.10;97.55;103550.31;10501739;28;20039;-77
2022/01/28 10:18:47;;;;;;;8.32;3.65;;;;;;;12.80;98.68;103544.13;10499290;28;20515;-78
2022/01/28 10:24:10;;;;;;;12.85;2.65;;;;;;;13.88;95.76;103557.09;10500233;28;20040;-78
2022/01/28 10:29:27;;;;;;;15.75;2.97;;;;;;;14.51;91.55;103555.28;10506512;28;20446;-78
2022/01/28 10:34:30;;;;;;;9.25;4.28;;;;;;;14.32;96.80;103556.28;10500045;28;20040;-77
2022/01/28 10:39:31;;;;;;;15.50;4.47;;;;;;;15.13;94.19;103547.84;10499434;28;20079;-77
2022/01/28 10:44:32;;;;;;;12.25;3.55;;;;;;;13.20;97.24;103559.28;10499261;28;20056;-77
2022/01/28 10:49:33;;;;;;;6.97;3.72;;;;;;;11.53;96.55;103558.69;10500093;28;20471;-77
2022/01/28 10:54:35;;;;;;;13.20;2.75;;;;;;;12.61;96.97;103550.47;10499471;28;20052;-78
2022/01/28 10:59:38;;;;;;;8.63;2.90;;;;;;;12.82;98.46;103552.13;10497538;28;20471;-78
2022/01/28 11:04:38;;;;;;;16.67;3.65;;;;;;;12.72;97.30;103541.28;10497408;28;20028;-78
2022/01/28 11:09:40;;;;;;;5.25;2.85;;;;;;;13.82;96.47;103548.69;10497098;28;20041;-77
2022/01/28 11:14:40;;;;;;;25.10;3.00;;;;;;;14.24;98.36;103535.28;10480173;28;20036;-77
2022/01/28 11:19:41;;;;;;;12.40;2.45;;;;;;;14.36;97.69;103533.16;10463668;28;20075;-77
2022/01/28 11:25:28;;;;;;;4.25;3.10;;;;;;;13.79;98.37;103521.75;10480491;28;20372;-77
2022/01/28 11:30:29;;;;;;;6.50;2.40;;;;;;;11.72;97.17;103511.75;10494682;28;20044;-77
2022/01/28 11:35:35;;;;;;;15.68;3.45;;;;;;;10.83;96.39;103508.91;10497686;28;20024;-77
2022/01/28 11:40:53;;;;;;;14.63;4.28;;;;;;;12.00;99.04;103507.38;10479920;28;20029;-78
2022/01/28 11:46:10;;;;;;;6.88;3.67;;;;;;;13.34;98.63;103493.53;10481449;28;20024;-77
2022/01/28 11:51:14;;;;;;;13.60;4.25;;;;;;;11.63;99.08;103495.28;10497784;28;20032;-78
2022/01/28 11:56:14;;;;;;;16.40;4.70;;;;;;;10.51;96.80;103496.31;10496268;28;20051;-77
2022/01/28 12:01:15;;;;;;;12.30;5.97;;;;;;;10.06;96.43;103499.25;10496617;28;20041;-77
2022/01/28 12:06:17;;;;;;;10.27;6.30;;;;;;;10.48;99.27;103483.03;10497396;28;20090;-78
2022/01/28 12:11:43;;;;;;;8.88;3.97;;;;;;;9.95;98.78;103477.63;10479630;28;20032;-78
2022/01/28 12:16:47;;;;;;;12.05;4.10;;;;;;;11.36;99.00;103455.28;10495991;28;20025;-77
2022/01/28 12:22:09;;;;;;;7.55;3.30;;;;;;;12.56;97.69;103438.59;10495881;28;20135;-76
2022/01/28 12:27:11;;;;;;;3.25;2.55;;;;;;;12.31;95.13;103446.38;10497760;28;20044;-78
2022/01/28 12:32:11;;;;;;;6.53;4.40;;;;;;;11.90;92.72;103425.91;10496740;28;20033;-76
2022/01/28 12:37:12;;;;;;;8.90;3.90;;;;;;;12.86;93.36;103406.69;10496091;28;20048;-78
2022/01/28 12:42:33;;;;;;;6.75;2.88;;;;;;;12.97;89.30;103407.34;10499042;28;20067;-77
2022/01/28 12:47:33;;;;;;;10.50;3.38;;;;;;;13.03;87.27;103393.16;10498577;28;20372;-79
2022/01/28 12:52:34;;;;;;;10.07;3.05;;;;;;;13.22;89.90;103403.06;10482101;28;20058;-79
2022/01/28 12:57:40;;;;;;;11.43;3.75;;;;;;;12.74;85.53;103404.19;10505294;28;20089;-77
2022/01/28 13:02:41;;;;;;;6.03;3.13;;;;;;;12.94;87.89;103393.22;10486134;28;20489;-78
2022/01/28 13:13:08;;;;;;;13.40;3.78;;;;;;;12.96;85.01;103394.78;10502038;28;20036;-78
2022/01/28 13:18:09;;;;;;;4.22;3.85;;;;;;;12.70;85.92;103386.47;10502659;28;20127;-77
2022/01/28 13:23:10;;;;;;;10.32;2.97;;;;;;;12.78;76.19;103385.72;10502689;28;20038;-77
2022/01/28 13:28:12;;;;;;;6.00;2.78;;;;;;;11.74;83.01;103379.41;10485852;28;20044;-77
2022/01/28 13:33:12;;;;;;;13.98;2.67;;;;;;;11.14;82.72;103383.13;10469406;28;20145;-78
2022/01/28 13:38:16;;;;;;;8.35;3.47;;;;;;;10.66;78.78;103394.72;10503104;28;20098;-78
2022/01/28 13:43:18;;;;;;;7.82;3.15;;;;;;;10.44;82.63;103395.75;10499849;28;20115;-77
2022/01/28 13:48:39;;;;;;;15.35;3.25;;;;;;;10.43;83.95;103393.19;10485082;28;20044;-78
2022/01/28 13:59:13;;;;;;;5.88;3.22;;;;;;;10.70;79.07;103368.19;10501652;28;20040;-77
2022/01/28 14:04:22;;;;;;;6.80;1.77;;;;;;;10.40;73.25;103359.13;10501665;28;20036;-77
2022/01/28 14:09:24;;;;;;;2.72;2.20;;;;;;;10.23;76.71;103349.72;10482866;28;20035;-77
2022/01/28 14:14:30;;;;;;;6.28;2.50;;;;;;;9.73;77.43;103343.28;10501707;28;20036;-78
2022/01/28 14:19:32;;;;;;;4.63;3.40;;;;;;;9.48;81.68;103353.53;10502098;28;20033;-78
2022/01/28 14:24:34;;;;;;;26.27;5.90;;;;;;;9.48;84.78;103367.06;10498755;28;20490;-77
2022/01/28 14:34:41;;;;;;;15.15;8.73;;;;;;;8.77;88.10;103376.59;10498176;28;20037;-77
2022/01/28 14:39:42;;;;;;;21.42;8.13;;;;;;;8.64;88.27;103355.09;10498318;28;20041;-78
2022/01/28 14:44:47;;;;;;;19.08;9.85;;;;;;;8.34;89.10;103353.03;10500233;28;20032;-77
2022/01/28 14:49:47;;;;;;;14.82;8.90;;;;;;;8.24;90.58;103341.25;10499205;28;20048;-77
2022/01/28 14:54:48;;;;;;;18.05;11.60;;;;;;;8.18;91.34;103342.59;10499382;28;20480;-78
2022/01/28 14:59:49;;;;;;;20.65;10.98;;;;;;;8.12;91.97;103346.63;10503706;28;20119;-77
2022/01/28 15:04:51;;;;;;;19.40;9.93;;;;;;;8.07;92.05;103327.25;10500361;28;20040;-78
2022/01/28 15:09:52;;;;;;;15.77;11.93;;;;;;;8.00;92.45;103331.41;10496460;28;20067;-77
2022/01/28 15:14:52;;;;;;;17.88;11.70;;;;;;;8.00;92.32;103334.09;10497114;28;20067;-78
2022/01/28 15:19:53;;;;;;;16.67;10.32;;;;;;;7.87;92.92;103338.75;10496962;28;20047;-77
2022/01/28 15:24:53;;;;;;;27.15;10.82;;;;;;;7.97;92.83;103339.72;10497879;28;20029;-77
2022/01/28 15:30:28;;;;;;;17.17;11.25;;;;;;;8.02;93.18;103339.38;10496995;28;20416;-77
2022/01/28 15:41:03;;;;;;;12.18;8.95;;;;;;;7.88;92.63;103335.94;10485573;28;20048;-77
2022/01/28 15:46:04;;;;;;;28.88;12.70;;;;;;;7.80;92.97;103326.72;10496282;28;20047;-78
2022/01/28 15:51:05;;;;;;;22.23;10.70;;;;;;;7.66;93.31;103336.75;10496891;28;20032;-78
2022/01/28 15:56:05;;;;;;;16.13;10.88;;;;;;;7.44;93.58;103329.44;10497030;28;20053;-77
2022/01/28 16:01:06;;;;;;;28.67;13.13;;;;;;;7.32;94.81;103333.06;10479053;28;20053;-77
2022/01/28 16:06:07;;;;;;;23.58;10.82;;;;;;;7.34;95.07;103327.53;10496642;28;20056;-77
2022/01/28 16:21:08;;;;;;;27.20;13.75;;;;;;;7.29;95.60;103314.44;10497562;28;20032;-78
2022/01/28 16:26:08;;;;;;;20.60;11.05;;;;;;;7.24;95.51;103313.91;10500595;28;20178;-77
2022/01/28 16:31:09;;;;;;;25.80;13.77;;;;;;;7.30;96.10;103318.84;10504856;28;20419;-77
2022/01/28 16:36:10;;;;;;;23.25;11.93;;;;;;;7.30;95.94;103310.75;10505291;28;20060;-77
2022/01/28 16:41:13;;;;;;;15.80;10.82;;;;;;;7.19;95.82;103311.59;10472568;28;20033;-78
2022/01/28 16:46:13;;;;;;;19.20;11.25;;;;;;;7.16;96.02;103301.03;10505241;28;20478;-78
2022/01/28 16:51:13;;;;;;;25.70;15.43;;;;;;;7.17;96.75;103310.81;10504109;28;20090;-78
2022/01/28 16:56:15;;;;;;;22.48;13.27;;;;;;;7.17;96.63;103307.28;10506105;28;20083;-77
2022/01/28 17:01:16;;;;;;;28.13;13.63;;;;;;;7.08;96.79;103300.75;10503694;28;20061;-78
2022/01/28 17:06:17;;;;;;;19.98;12.20;;;;;;;6.97;97.81;103290.78;10503572;28;20048;-78
2022/01/28 17:16:18;;;;;;;22.48;11.48;;;;;;;6.91;98.04;103277.78;10508134;28;20043;-77
2022/01/28 17:21:19;;;;;;;35.00;14.43;;;;;;;6.89;98.38;103265.38;10501851;28;20115;-77
2022/01/28 17:26:20;;;;;;;18.48;10.98;;;;;;;6.89;98.51;103249.22;10502538;28;20055;-77
2022/01/28 17:31:20;;;;;;;21.02;11.80;;;;;;;6.81;98.95;103235.50;10501431;28;20107;-77
2022/01/28 17:36:20;;;;;;;33.50;12.43;;;;;;;6.70;99.21;103231.78;10501877;28;20120;-77
2022/01/28 17:41:22;;;;;;;32.08;14.23;;;;;;;6.64;99.64;103215.22;10501454;28;20472;-78
2022/01/28 17:46:22;;;;;;;19.52;13.10;;;;;;;6.65;100.00;103201.63;10502736;28;20036;-78
2022/01/28 17:51:22;;;;;;;32.47;16.27;;;;;;;6.58;100.00;103192.31;10501613;28;20396;-77
2022/01/28 17:56:23;;;;;;;27.88;13.25;;;;;;;6.49;100.00;103171.47;10483864;28;20057;-77
2022/01/28 18:01:23;;;;;;;35.97;14.90;;;;;;;6.45;100.00;103167.28;10483552;28;20036;-77
2022/01/28 18:06:24;;;;;;;28.20;17.17;;;;;;;6.47;100.00;103173.41;10499914;28;20091;-77
2022/01/28 18:11:24;;;;;;;23.83;14.35;;;;;;;6.50;100.00;103189.31;10501228;28;20039;-77
2022/01/28 18:16:24;;;;;;;29.75;14.73;;;;;;;6.52;100.00;103190.94;10501557;28;20128;-77
2022/01/28 18:21:25;;;;;;;28.50;15.77;;;;;;;6.56;100.00;103180.78;10499203;28;20032;-77
2022/01/28 18:26:25;;;;;;;22.42;13.48;;;;;;;6.55;100.00;103197.06;10483190;28;20033;-78
2022/01/28 18:31:26;;;;;;;27.77;14.07;;;;;;;6.54;100.00;103180.06;10499070;28;20102;-77
2022/01/28 18:36:27;;;;;;;25.48;12.95;;;;;;;6.55;100.00;103189.84;10500130;28;20468;-76
2022/01/28 18:41:27;;;;;;;30.05;12.70;;;;;;;6.55;100.00;103178.22;10481795;28;20197;-78
2022/01/28 18:46:39;;;;;;;22.50;12.30;;;;;;;6.56;100.00;103153.88;10499575;28;20044;-77
2022/01/28 18:51:40;;;;;;;18.65;9.77;;;;;;;6.57;100.00;103128.66;10499006;28;20115;-78
2022/01/28 18:56:40;;;;;;;24.85;13.15;;;;;;;6.65;100.00;103128.09;10465129;28;20120;-77
2022/01/28 19:01:41;;;;;;;26.63;10.70;;;;;;;6.69;100.00;103125.03;10498858;28;20044;-78
2022/01/28 19:06:41;;;;;;;22.98;10.38;;;;;;;6.72;100.00;103138.25;10498314;28;20456;-77
2022/01/28 19:11:43;;;;;;;23.15;9.15;;;;;;;6.70;100.00;103142.03;10497649;28;20115;-78
2022/01/28 19:16:43;;;;;;;24.65;9.00;;;;;;;6.68;100.00;103131.41;10498830;28;20112;-78
2022/01/28 19:21:43;;;;;;;12.32;5.18;;;;;;;6.69;100.00;103130.41;10496715;28;20028;-78
2022/01/28 19:26:44;;;;;;;24.10;5.82;;;;;;;6.80;100.00;103128.75;10498632;28;20163;-78
2022/01/28 19:31:44;;;;;;;19.65;6.55;;;;;;;6.92;100.00;103125.97;10503767;28;20039;-78
2022/01/28 19:36:45;;;;;;;10.23;5.88;;;;;;;7.01;100.00;103115.44;10497221;28;20090;-78
2022/01/28 19:41:45;;;;;;;16.70;7.57;;;;;;;7.05;100.00;103136.66;10497711;28;20082;-77
2022/01/28 19:46:46;;;;;;;20.23;6.95;;;;;;;7.13;99.87;103128.81;10496808;28;20028;-76
2022/01/28 19:51:46;;;;;;;9.38;6.63;;;;;;;7.14;99.92;103116.19;10498304;28;20033;-77
2022/01/28 19:56:47;;;;;;;15.48;7.15;;;;;;;7.17;99.70;103105.19;10496865;28;20125;-77
2022/01/28 20:01:47;;;;;;;17.23;7.95;;;;;;;7.21;99.35;103102.13;10501426;28;20076;-78
2022/01/28 20:06:47;;;;;;;10.07;6.63;;;;;;;7.28;99.65;103088.19;10505977;28;20403;-78
2022/01/28 20:11:51;;;;;;;13.00;8.38;;;;;;;7.34;99.31;103079.56;10507387;28;20029;-77
2022/01/28 20:16:52;;;;;;;19.77;7.63;;;;;;;7.30;99.15;103075.44;10504992;28;20352;-77
2022/01/28 20:21:52;;;;;;;20.45;8.27;;;;;;;7.23;99.08;103080.44;10504988;28;20116;-78
2022/01/28 20:26:53;;;;;;;23.27;9.10;;;;;;;7.22;99.34;103076.06;10487585;28;20510;-78
2022/01/28 20:31:53;;;;;;;18.27;9.13;;;;;;;7.23;99.55;103065.13;10504692;28;20127;-78
2022/01/28 20:36:54;;;;;;;19.00;8.98;;;;;;;7.26;99.78;103079.34;10487306;28;20033;-77
2022/01/28 20:41:55;;;;;;;14.93;7.88;;;;;;;7.26;99.77;103071.28;10505252;28;20028;-76
2022/01/28 20:46:55;;;;;;;12.75;8.32;;;;;;;7.22;99.99;103065.28;10503824;28;20040;-77
2022/01/28 20:51:57;;;;;;;13.27;8.98;;;;;;;7.23;100.00;103053.50;10504696;28;20032;-77
2022/01/28 20:56:57;;;;;;;21.17;9.77;;;;;;;7.28;100.00;103036.97;10502605;28;20076;-76
2022/01/28 21:01:58;;;;;;;17.23;10.23;;;;;;;7.33;99.97;103045.53;10503611;28;20039;-77
2022/01/28 21:06:58;;;;;;;16.67;10.98;;;;;;;7.35;99.57;103041.75;10503856;28;20115;-77
2022/01/28 21:11:59;;;;;;;23.55;10.88;;;;;;;7.34;99.68;103029.25;10502557;28;20064;-77
2022/01/28 21:16:59;;;;;;;13.45;8.20;;;;;;;7.28;99.75;103012.72;10503548;28;20072;-77
2022/01/28 21:22:00;;;;;;;12.40;10.20;;;;;;;7.19;100.00;103003.53;10486926;28;20062;-77
2022/01/28 21:27:00;;;;;;;23.77;11.32;;;;;;;7.20;100.00;103011.47;10503257;28;20472;-76
2022/01/28 21:32:00;;;;;;;24.83;12.52;;;;;;;7.18;99.91;103001.84;10503378;28;20033;-77
2022/01/28 21:37:02;;;;;;;29.63;13.30;;;;;;;7.15;99.87;103002.94;10503720;28;20119;-77
2022/01/28 21:42:03;;;;;;;33.72;13.82;;;;;;;7.21;99.92;102994.34;10503192;28;20506;-77
2022/01/28 21:47:04;;;;;;;21.60;11.73;;;;;;;7.17;99.92;102994.72;10506580;28;20069;-76
2022/01/28 21:52:04;;;;;;;27.00;14.38;;;;;;;7.11;99.99;102969.09;10503817;28;20040;-77
2022/01/28 21:57:05;;;;;;;27.08;16.02;;;;;;;7.12;100.00;102959.22;10502935;28;20096;-76
2022/01/28 22:02:05;;;;;;;25.98;15.63;;;;;;;7.14;100.00;102957.22;10501658;28;20039;-76
2022/01/28 22:07:06;;;;;;;46.10;14.73;;;;;;;7.14;100.00;102947.31;10501120;28;20090;-77
2022/01/28 22:12:06;;;;;;;29.48;13.07;;;;;;;7.19;100.00;102930.78;10500789;28;20032;-77
2022/01/28 22:17:07;;;;;;;33.42;15.40;;;;;;;7.12;100.00;102938.50;10500825;28;20039;-75
2022/01/28 22:22:07;;;;;;;37.22;15.55;;;;;;;7.17;100.00;102941.66;10499243;28;20123;-76
2022/01/28 22:27:08;;;;;;;17.70;13.50;;;;;;;7.11;100.00;102952.94;10499700;28;20036;-71
2022/01/28 22:32:08;;;;;;;32.83;17.98;;;;;;;7.16;100.00;102956.13;10500487;28;20033;-78
2022/01/28 22:37:08;;;;;;;27.98;16.02;;;;;;;7.21;100.00;102932.38;10501044;28;20054;-75
2022/01/28 22:42:09;;;;;;;23.45;15.80;;;;;;;7.25;100.00;102938.38;10500680;28;20480;-77
2022/01/28 22:47:09;;;;;;;33.45;16.67;;;;;;;7.35;100.00;102925.00;10501303;28;20045;-77
2022/01/28 22:52:10;;;;;;;33.55;16.02;;;;;;;7.34;100.00;102916.06;10499647;28;20450;-76
2022/01/28 22:57:10;;;;;;;35.97;18.08;;;;;;;7.40;100.00;102914.66;10499481;28;20101;-77
2022/01/28 23:02:12;;;;;;;34.13;15.25;;;;;;;7.45;100.00;102915.16;10500004;28;20132;-76
2022/01/28 23:07:13;;;;;;;26.83;14.65;;;;;;;7.50;100.00;102914.75;10501046;28;20047;-77
2022/01/28 23:12:13;;;;;;;21.27;12.77;;;;;;;7.52;100.00;102910.94;10501390;28;20055;-76
2022/01/28 23:17:17;;;;;;;36.53;12.00;;;;;;;7.57;100.00;102908.75;10499983;28;20041;-76
2022/01/28 23:22:17;;;;;;;32.80;13.63;;;;;;;7.57;100.00;102895.25;10500438;28;20452;-77
2022/01/28 23:27:17;;;;;;;23.50;11.07;;;;;;;7.54;100.00;102890.13;10498911;28;20033;-76
2022/01/28 23:32:18;;;;;;;20.45;9.60;;;;;;;7.59;100.00;102893.28;10498336;28;20035;-77
2022/01/28 23:37:19;;;;;;;28.15;10.65;;;;;;;7.63;100.00;102883.13;10497914;28;20379;-76
2022/01/28 23:42:19;;;;;;;16.38;7.75;;;;;;;7.65;100.00;102870.34;10482447;28;20079;-76
2022/01/28 23:47:19;;;;;;;18.95;6.55;;;;;;;7.64;100.00;102865.94;10498754;28;20051;-76
2022/01/28 23:52:20;;;;;;;23.13;7.47;;;;;;;7.74;100.00;102858.78;10498391;28;20029;-76
2022/01/28 23:57:20;;;;;;;9.10;5.72;;;;;;;7.76;100.00;102832.53;10500164;28;20057;-76
